sensor_id;sensor_type;location;lat;lon;timestamp;pressure;altitude;pressure_sealevel;temperature;humidity
27202;BME280;14717;46.924;15.474;2022-08-19T00:01:35;97237.13;;;20.03;87.34
27202;BME280;14717;46.924;15.474;2022-08-19T00:04:05;97247.13;;;19.85;88.67
27202;BME280;14717;46.924;15.474;2022-08-19T00:06:31;97267.59;;;19.85;88.42
27202;BME280;14717;46.924;15.474;2022-08-19T00:08:57;97271.78;;;19.95;88.05
27202;BME280;14717;46.924;15.474;2022-08-19T00:11:23;97272.28;;;20.15;87.58
27202;BME280;14717;46.924;15.474;2022-08-19T00:13:49;97276.78;;;20.20;87.05
27202;BME280;14717;46.924;15.474;2022-08-19T00:16:16;97277.28;;;20.25;86.27
27202;BME280;14717;46.924;15.474;2022-08-19T00:18:43;97273.97;;;20.20;86.75
27202;BME280;14717;46.924;15.474;2022-08-19T00:21:09;97260.44;;;19.88;88.37
27202;BME280;14717;46.924;15.474;2022-08-19T00:23:35;97266.94;;;19.92;88.62
27202;BME280;14717;46.924;15.474;2022-08-19T00:26:05;97259.94;;;19.52;90.72
27202;BME280;14717;46.924;15.474;2022-08-19T00:28:31;97273.47;;;19.65;91.38
27202;BME280;14717;46.924;15.474;2022-08-19T00:30:59;97271.34;;;19.93;89.48
27202;BME280;14717;46.924;15.474;2022-08-19T00:33:25;97258.66;;;19.64;89.43
27202;BME280;14717;46.924;15.474;2022-08-19T00:35:51;97244.63;;;19.15;92.30
27202;BME280;14717;46.924;15.474;2022-08-19T00:38:16;97252.75;;;19.35;93.13
27202;BME280;14717;46.924;15.474;2022-08-19T00:40:43;97257.34;;;19.43;91.82
27202;BME280;14717;46.924;15.474;2022-08-19T00:43:12;97273.13;;;19.66;91.21
27202;BME280;14717;46.924;15.474;2022-08-19T00:45:39;97261.06;;;19.47;90.77
27202;BME280;14717;46.924;15.474;2022-08-19T00:48:07;97273.19;;;19.20;92.66
27202;BME280;14717;46.924;15.474;2022-08-19T00:50:34;97273.72;;;19.11;93.45
27202;BME280;14717;46.924;15.474;2022-08-19T00:53:00;97275.47;;;18.88;94.74
27202;BME280;14717;46.924;15.474;2022-08-19T00:55:30;97275.03;;;18.86;96.11
27202;BME280;14717;46.924;15.474;2022-08-19T00:58:07;97281.28;;;18.95;95.33
27202;BME280;14717;46.924;15.474;2022-08-19T01:00:33;97273.59;;;18.92;95.40
27202;BME280;14717;46.924;15.474;2022-08-19T01:03:03;97287.78;;;18.83;95.70
27202;BME280;14717;46.924;15.474;2022-08-19T01:05:30;97290.06;;;18.93;95.11
27202;BME280;14717;46.924;15.474;2022-08-19T01:07:58;97299.97;;;18.91;95.59
27202;BME280;14717;46.924;15.474;2022-08-19T01:10:27;97295.56;;;18.90;95.46
27202;BME280;14717;46.924;15.474;2022-08-19T01:12:54;97311.25;;;18.79;95.96
27202;BME280;14717;46.924;15.474;2022-08-19T01:15:23;97311.06;;;18.72;96.91
27202;BME280;14717;46.924;15.474;2022-08-19T01:17:50;97304.78;;;18.63;97.49
27202;BME280;14717;46.924;15.474;2022-08-19T01:20:20;97311.59;;;18.62;98.27
27202;BME280;14717;46.924;15.474;2022-08-19T01:22:52;97317.09;;;18.59;98.62
27202;BME280;14717;46.924;15.474;2022-08-19T01:25:22;97312.72;;;18.88;96.42
27202;BME280;14717;46.924;15.474;2022-08-19T01:27:50;97305.66;;;18.79;95.67
27202;BME280;14717;46.924;15.474;2022-08-19T01:30:26;97296.72;;;18.74;96.31
27202;BME280;14717;46.924;15.474;2022-08-19T01:32:52;97288.53;;;18.53;97.34
27202;BME280;14717;46.924;15.474;2022-08-19T01:35:18;97269.88;;;18.57;97.09
27202;BME280;14717;46.924;15.474;2022-08-19T01:37:49;97258.25;;;18.71;96.61
27202;BME280;14717;46.924;15.474;2022-08-19T01:40:16;97252.34;;;19.03;93.47
27202;BME280;14717;46.924;15.474;2022-08-19T01:42:42;97252.38;;;18.91;93.31
27202;BME280;14717;46.924;15.474;2022-08-19T01:45:08;97241.00;;;18.69;95.17
27202;BME280;14717;46.924;15.474;2022-08-19T01:47:36;97229.88;;;18.57;95.90
27202;BME280;14717;46.924;15.474;2022-08-19T01:50:04;97213.72;;;18.50;97.41
27202;BME280;14717;46.924;15.474;2022-08-19T01:52:30;97205.06;;;18.55;98.24
27202;BME280;14717;46.924;15.474;2022-08-19T01:54:55;97204.41;;;18.46;98.40
27202;BME280;14717;46.924;15.474;2022-08-19T01:57:21;97224.81;;;18.62;98.62
27202;BME280;14717;46.924;15.474;2022-08-19T01:59:46;97225.63;;;18.78;96.80
27202;BME280;14717;46.924;15.474;2022-08-19T02:02:12;97232.34;;;18.74;96.95
27202;BME280;14717;46.924;15.474;2022-08-19T02:04:37;97231.63;;;18.92;95.42
27202;BME280;14717;46.924;15.474;2022-08-19T02:07:04;97225.38;;;18.98;94.58
27202;BME280;14717;46.924;15.474;2022-08-19T02:09:31;97214.06;;;18.64;95.76
27202;BME280;14717;46.924;15.474;2022-08-19T02:11:56;97221.94;;;18.59;96.34
27202;BME280;14717;46.924;15.474;2022-08-19T02:14:22;97216.69;;;18.73;95.99
27202;BME280;14717;46.924;15.474;2022-08-19T02:16:47;97210.38;;;18.91;94.97
27202;BME280;14717;46.924;15.474;2022-08-19T02:19:13;97214.53;;;18.97;94.11
27202;BME280;14717;46.924;15.474;2022-08-19T02:21:38;97209.13;;;19.04;93.67
27202;BME280;14717;46.924;15.474;2022-08-19T02:24:04;97209.28;;;18.95;94.62
27202;BME280;14717;46.924;15.474;2022-08-19T02:26:31;97207.44;;;19.15;92.60
27202;BME280;14717;46.924;15.474;2022-08-19T02:28:57;97198.38;;;19.21;91.00
27202;BME280;14717;46.924;15.474;2022-08-19T02:31:24;97205.22;;;19.23;91.57
27202;BME280;14717;46.924;15.474;2022-08-19T02:33:50;97201.72;;;19.26;92.25
27202;BME280;14717;46.924;15.474;2022-08-19T02:36:17;97200.63;;;19.16;92.77
27202;BME280;14717;46.924;15.474;2022-08-19T02:38:44;97203.63;;;19.07;92.49
27202;BME280;14717;46.924;15.474;2022-08-19T02:41:20;97207.63;;;19.06;92.88
27202;BME280;14717;46.924;15.474;2022-08-19T02:43:45;97217.53;;;19.04;92.32
27202;BME280;14717;46.924;15.474;2022-08-19T02:46:23;97216.72;;;19.19;91.01
27202;BME280;14717;46.924;15.474;2022-08-19T02:48:53;97215.28;;;19.24;90.79
27202;BME280;14717;46.924;15.474;2022-08-19T02:51:24;97213.91;;;19.19;90.55
27202;BME280;14717;46.924;15.474;2022-08-19T02:53:50;97219.88;;;19.32;90.64
27202;BME280;14717;46.924;15.474;2022-08-19T02:56:16;97214.28;;;19.32;90.88
27202;BME280;14717;46.924;15.474;2022-08-19T02:58:43;97215.88;;;19.33;90.44
27202;BME280;14717;46.924;15.474;2022-08-19T03:01:09;97219.06;;;19.17;91.00
27202;BME280;14717;46.924;15.474;2022-08-19T03:03:36;97216.72;;;19.19;91.67
27202;BME280;14717;46.924;15.474;2022-08-19T03:06:20;97203.88;;;19.33;91.43
27202;BME280;14717;46.924;15.474;2022-08-19T03:08:47;97209.09;;;19.34;90.85
27202;BME280;14717;46.924;15.474;2022-08-19T03:11:20;97212.28;;;19.33;90.42
27202;BME280;14717;46.924;15.474;2022-08-19T03:13:46;97211.69;;;19.43;90.45
27202;BME280;14717;46.924;15.474;2022-08-19T03:16:14;97217.09;;;19.51;89.89
27202;BME280;14717;46.924;15.474;2022-08-19T03:18:41;97214.03;;;19.56;89.05
27202;BME280;14717;46.924;15.474;2022-08-19T03:21:06;97225.06;;;19.49;89.55
27202;BME280;14717;46.924;15.474;2022-08-19T03:23:32;97224.16;;;19.45;88.50
27202;BME280;14717;46.924;15.474;2022-08-19T03:25:57;97227.78;;;19.46;88.98
27202;BME280;14717;46.924;15.474;2022-08-19T03:28:23;97238.38;;;19.37;89.13
27202;BME280;14717;46.924;15.474;2022-08-19T03:31:04;97241.91;;;19.34;89.87
27202;BME280;14717;46.924;15.474;2022-08-19T03:33:32;97242.16;;;19.29;89.95
27202;BME280;14717;46.924;15.474;2022-08-19T03:38:26;97272.53;;;19.27;90.15
27202;BME280;14717;46.924;15.474;2022-08-19T03:40:51;97296.59;;;19.28;89.57
27202;BME280;14717;46.924;15.474;2022-08-19T03:43:17;97319.19;;;19.35;89.24
27202;BME280;14717;46.924;15.474;2022-08-19T03:45:42;97319.63;;;19.37;88.64
27202;BME280;14717;46.924;15.474;2022-08-19T03:48:08;97332.91;;;19.40;88.82
27202;BME280;14717;46.924;15.474;2022-08-19T03:50:39;97352.97;;;19.42;89.49
27202;BME280;14717;46.924;15.474;2022-08-19T03:53:04;97370.34;;;19.47;89.07
27202;BME280;14717;46.924;15.474;2022-08-19T03:55:31;97336.91;;;19.54;88.93
27202;BME280;14717;46.924;15.474;2022-08-19T03:57:56;97327.66;;;19.38;89.64
27202;BME280;14717;46.924;15.474;2022-08-19T04:00:22;97322.88;;;19.54;90.00
27202;BME280;14717;46.924;15.474;2022-08-19T04:02:47;97318.56;;;19.41;90.29
27202;BME280;14717;46.924;15.474;2022-08-19T04:05:12;97318.56;;;19.26;90.81
27202;BME280;14717;46.924;15.474;2022-08-19T04:07:39;97313.41;;;19.13;91.69
27202;BME280;14717;46.924;15.474;2022-08-19T04:10:05;97302.28;;;19.01;92.82
27202;BME280;14717;46.924;15.474;2022-08-19T04:12:30;97291.78;;;18.98;93.41
27202;BME280;14717;46.924;15.474;2022-08-19T04:14:56;97303.22;;;18.93;93.34
27202;BME280;14717;46.924;15.474;2022-08-19T04:17:21;97308.38;;;18.91;93.77
27202;BME280;14717;46.924;15.474;2022-08-19T04:19:47;97297.69;;;18.81;94.34
27202;BME280;14717;46.924;15.474;2022-08-19T04:22:12;97321.72;;;18.67;95.52
27202;BME280;14717;46.924;15.474;2022-08-19T04:24:38;97308.34;;;18.60;96.18
27202;BME280;14717;46.924;15.474;2022-08-19T04:27:04;97307.25;;;18.65;96.52
27202;BME280;14717;46.924;15.474;2022-08-19T04:29:30;97309.03;;;18.57;96.87
27202;BME280;14717;46.924;15.474;2022-08-19T04:31:57;97299.72;;;18.53;96.90
27202;BME280;14717;46.924;15.474;2022-08-19T04:34:26;97287.75;;;18.68;96.04
27202;BME280;14717;46.924;15.474;2022-08-19T04:36:55;97293.84;;;18.85;95.16
27202;BME280;14717;46.924;15.474;2022-08-19T04:39:24;97289.41;;;18.84;94.89
27202;BME280;14717;46.924;15.474;2022-08-19T04:42:15;97289.47;;;18.88;94.88
27202;BME280;14717;46.924;15.474;2022-08-19T04:45:00;97286.66;;;19.00;93.83
27202;BME280;14717;46.924;15.474;2022-08-19T04:47:25;97283.16;;;19.03;93.33
27202;BME280;14717;46.924;15.474;2022-08-19T04:49:51;97278.34;;;19.19;92.47
27202;BME280;14717;46.924;15.474;2022-08-19T04:52:17;97286.28;;;19.17;92.13
27202;BME280;14717;46.924;15.474;2022-08-19T04:54:42;97295.50;;;19.17;92.18
27202;BME280;14717;46.924;15.474;2022-08-19T04:57:08;97297.84;;;19.30;92.10
27202;BME280;14717;46.924;15.474;2022-08-19T04:59:35;97296.69;;;19.31;91.60
27202;BME280;14717;46.924;15.474;2022-08-19T05:02:03;97305.53;;;19.33;91.03
27202;BME280;14717;46.924;15.474;2022-08-19T05:04:28;97314.66;;;19.30;93.07
27202;BME280;14717;46.924;15.474;2022-08-19T05:06:56;97316.09;;;19.40;91.83
27202;BME280;14717;46.924;15.474;2022-08-19T05:09:21;97324.25;;;19.45;90.40
27202;BME280;14717;46.924;15.474;2022-08-19T05:11:46;97324.69;;;19.62;89.76
27202;BME280;14717;46.924;15.474;2022-08-19T05:14:12;97328.25;;;19.78;89.54
27202;BME280;14717;46.924;15.474;2022-08-19T05:16:38;97321.69;;;19.86;88.75
27202;BME280;14717;46.924;15.474;2022-08-19T05:19:03;97324.47;;;19.86;88.57
27202;BME280;14717;46.924;15.474;2022-08-19T05:21:47;97337.66;;;20.01;88.27
27202;BME280;14717;46.924;15.474;2022-08-19T05:24:32;97330.13;;;20.05;88.05
27202;BME280;14717;46.924;15.474;2022-08-19T05:27:00;97332.13;;;20.04;88.42
27202;BME280;14717;46.924;15.474;2022-08-19T05:29:27;97337.53;;;20.12;87.67
27202;BME280;14717;46.924;15.474;2022-08-19T05:31:54;97338.72;;;20.11;87.93
27202;BME280;14717;46.924;15.474;2022-08-19T05:34:21;97337.22;;;20.17;87.29
27202;BME280;14717;46.924;15.474;2022-08-19T05:36:48;97331.34;;;20.22;86.90
27202;BME280;14717;46.924;15.474;2022-08-19T05:39:17;97327.81;;;20.25;86.30
27202;BME280;14717;46.924;15.474;2022-08-19T05:41:44;97310.81;;;20.37;85.98
27202;BME280;14717;46.924;15.474;2022-08-19T05:44:10;97323.31;;;20.40;87.66
27202;BME280;14717;46.924;15.474;2022-08-19T05:46:39;97330.78;;;20.51;86.64
27202;BME280;14717;46.924;15.474;2022-08-19T05:49:05;97348.50;;;20.55;85.75
27202;BME280;14717;46.924;15.474;2022-08-19T05:51:33;97349.47;;;20.62;84.63
27202;BME280;14717;46.924;15.474;2022-08-19T05:54:00;97343.03;;;20.62;85.01
27202;BME280;14717;46.924;15.474;2022-08-19T05:56:25;97337.41;;;20.62;85.60
27202;BME280;14717;46.924;15.474;2022-08-19T05:58:51;97347.94;;;20.65;84.86
27202;BME280;14717;46.924;15.474;2022-08-19T06:01:18;97361.69;;;20.70;86.09
27202;BME280;14717;46.924;15.474;2022-08-19T06:03:44;97359.88;;;20.62;86.46
27202;BME280;14717;46.924;15.474;2022-08-19T06:06:13;97361.69;;;20.70;86.82
27202;BME280;14717;46.924;15.474;2022-08-19T06:08:39;97357.53;;;20.83;84.76
27202;BME280;14717;46.924;15.474;2022-08-19T06:11:35;97353.84;;;20.97;85.38
27202;BME280;14717;46.924;15.474;2022-08-19T06:14:13;97360.84;;;21.07;84.15
27202;BME280;14717;46.924;15.474;2022-08-19T06:16:40;97360.13;;;21.10;82.58
27202;BME280;14717;46.924;15.474;2022-08-19T06:19:10;97348.16;;;21.16;82.93
27202;BME280;14717;46.924;15.474;2022-08-19T06:21:38;97332.19;;;21.20;84.16
27202;BME280;14717;46.924;15.474;2022-08-19T06:24:06;97321.25;;;21.15;86.45
27202;BME280;14717;46.924;15.474;2022-08-19T06:26:35;97317.03;;;21.25;82.99
27202;BME280;14717;46.924;15.474;2022-08-19T06:29:01;97329.31;;;21.39;81.81
27202;BME280;14717;46.924;15.474;2022-08-19T06:31:28;97316.53;;;21.41;82.56
27202;BME280;14717;46.924;15.474;2022-08-19T06:33:54;97309.88;;;21.49;81.59
27202;BME280;14717;46.924;15.474;2022-08-19T06:38:56;97315.59;;;21.82;81.29
27202;BME280;14717;46.924;15.474;2022-08-19T06:41:23;97323.88;;;21.94;80.23
27202;BME280;14717;46.924;15.474;2022-08-19T06:43:48;97336.78;;;21.98;79.10
27202;BME280;14717;46.924;15.474;2022-08-19T06:46:16;97350.97;;;22.05;78.69
27202;BME280;14717;46.924;15.474;2022-08-19T06:48:42;97355.06;;;22.11;79.34
27202;BME280;14717;46.924;15.474;2022-08-19T06:51:08;97370.13;;;22.19;78.71
27202;BME280;14717;46.924;15.474;2022-08-19T06:53:34;97369.78;;;22.23;79.07
27202;BME280;14717;46.924;15.474;2022-08-19T06:55:59;97365.44;;;22.29;78.59
27202;BME280;14717;46.924;15.474;2022-08-19T06:58:29;97369.59;;;22.39;78.03
27202;BME280;14717;46.924;15.474;2022-08-19T07:00:59;97377.72;;;22.44;77.08
27202;BME280;14717;46.924;15.474;2022-08-19T07:03:30;97389.84;;;22.48;76.33
27202;BME280;14717;46.924;15.474;2022-08-19T07:05:56;97401.97;;;22.52;77.36
27202;BME280;14717;46.924;15.474;2022-08-19T07:08:22;97396.72;;;22.50;77.00
27202;BME280;14717;46.924;15.474;2022-08-19T07:10:49;97391.91;;;22.51;76.32
27202;BME280;14717;46.924;15.474;2022-08-19T07:13:14;97390.66;;;22.48;79.46
27202;BME280;14717;46.924;15.474;2022-08-19T07:15:40;97385.84;;;22.49;76.77
27202;BME280;14717;46.924;15.474;2022-08-19T07:18:06;97399.16;;;22.52;78.47
27202;BME280;14717;46.924;15.474;2022-08-19T07:20:31;97397.09;;;22.49;78.94
27202;BME280;14717;46.924;15.474;2022-08-19T07:22:58;97395.41;;;22.44;78.82
27202;BME280;14717;46.924;15.474;2022-08-19T07:25:23;97388.75;;;22.26;79.19
27202;BME280;14717;46.924;15.474;2022-08-19T07:27:49;97390.16;;;22.17;80.95
27202;BME280;14717;46.924;15.474;2022-08-19T07:30:16;97375.53;;;22.08;80.71
27202;BME280;14717;46.924;15.474;2022-08-19T07:32:42;97382.09;;;22.16;81.13
27202;BME280;14717;46.924;15.474;2022-08-19T07:35:08;97400.81;;;22.27;82.08
27202;BME280;14717;46.924;15.474;2022-08-19T07:37:35;97416.81;;;22.23;81.37
27202;BME280;14717;46.924;15.474;2022-08-19T07:40:05;97431.34;;;22.25;81.39
27202;BME280;14717;46.924;15.474;2022-08-19T07:42:30;97418.78;;;22.19;83.65
27202;BME280;14717;46.924;15.474;2022-08-19T07:44:57;97419.00;;;22.11;86.41
27202;BME280;14717;46.924;15.474;2022-08-19T07:47:23;97413.13;;;21.97;87.40
27202;BME280;14717;46.924;15.474;2022-08-19T07:49:48;97400.28;;;21.74;88.08
27202;BME280;14717;46.924;15.474;2022-08-19T07:52:14;97425.72;;;21.80;90.03
27202;BME280;14717;46.924;15.474;2022-08-19T07:54:40;97454.59;;;21.78;88.88
27202;BME280;14717;46.924;15.474;2022-08-19T07:57:06;97446.47;;;21.73;90.48
27202;BME280;14717;46.924;15.474;2022-08-19T07:59:32;97439.59;;;21.70;91.54
27202;BME280;14717;46.924;15.474;2022-08-19T08:01:58;97448.28;;;21.62;92.70
27202;BME280;14717;46.924;15.474;2022-08-19T08:04:25;97453.47;;;21.60;93.36
27202;BME280;14717;46.924;15.474;2022-08-19T08:07:09;97424.56;;;21.22;96.00
27202;BME280;14717;46.924;15.474;2022-08-19T08:09:53;97435.75;;;21.18;97.73
27202;BME280;14717;46.924;15.474;2022-08-19T08:12:26;97432.03;;;21.33;99.43
27202;BME280;14717;46.924;15.474;2022-08-19T08:14:55;97419.84;;;21.44;97.84
27202;BME280;14717;46.924;15.474;2022-08-19T08:17:24;97385.47;;;21.35;99.83
27202;BME280;14717;46.924;15.474;2022-08-19T08:19:50;97359.28;;;21.09;100.00
27202;BME280;14717;46.924;15.474;2022-08-19T08:22:17;97359.09;;;20.99;100.00
27202;BME280;14717;46.924;15.474;2022-08-19T08:25:13;97321.16;;;20.90;100.00
27202;BME280;14717;46.924;15.474;2022-08-19T08:27:40;97343.75;;;20.96;100.00
27202;BME280;14717;46.924;15.474;2022-08-19T08:30:12;97370.75;;;21.20;100.00
27202;BME280;14717;46.924;15.474;2022-08-19T08:32:39;97386.22;;;21.33;100.00
27202;BME280;14717;46.924;15.474;2022-08-19T08:35:06;97378.63;;;21.33;100.00
27202;BME280;14717;46.924;15.474;2022-08-19T08:37:33;97357.66;;;21.08;100.00
27202;BME280;14717;46.924;15.474;2022-08-19T08:40:03;97361.09;;;20.98;99.75
27202;BME280;14717;46.924;15.474;2022-08-19T08:42:36;97345.53;;;21.04;100.00
27202;BME280;14717;46.924;15.474;2022-08-19T08:45:12;97357.59;;;21.05;100.00
27202;BME280;14717;46.924;15.474;2022-08-19T08:47:41;97354.78;;;21.05;98.97
27202;BME280;14717;46.924;15.474;2022-08-19T08:50:33;97364.34;;;21.23;100.00
27202;BME280;14717;46.924;15.474;2022-08-19T08:53:05;97380.75;;;21.39;100.00
27202;BME280;14717;46.924;15.474;2022-08-19T08:55:31;97378.31;;;21.38;100.00
27202;BME280;14717;46.924;15.474;2022-08-19T08:58:08;97370.41;;;21.43;100.00
27202;BME280;14717;46.924;15.474;2022-08-19T09:00:43;97375.47;;;21.57;96.94
27202;BME280;14717;46.924;15.474;2022-08-19T09:03:19;97399.47;;;21.73;100.00
27202;BME280;14717;46.924;15.474;2022-08-19T09:10:54;97381.16;;;21.60;99.57
27202;BME280;14717;46.924;15.474;2022-08-19T09:13:42;97383.69;;;21.91;97.75
27202;BME280;14717;46.924;15.474;2022-08-19T09:16:14;97369.31;;;21.74;100.00
27202;BME280;14717;46.924;15.474;2022-08-19T09:18:43;97333.06;;;21.69;100.00
27202;BME280;14717;46.924;15.474;2022-08-19T09:21:09;97328.03;;;21.78;100.00
27202;BME280;14717;46.924;15.474;2022-08-19T09:23:36;97344.41;;;21.98;100.00
27202;BME280;14717;46.924;15.474;2022-08-19T09:26:07;97355.06;;;22.11;100.00
27202;BME280;14717;46.924;15.474;2022-08-19T09:28:33;97358.34;;;22.39;98.99
27202;BME280;14717;46.924;15.474;2022-08-19T09:30:58;97371.19;;;22.65;96.86
27202;BME280;14717;46.924;15.474;2022-08-19T09:33:24;97383.00;;;22.74;94.81
27202;BME280;14717;46.924;15.474;2022-08-19T09:35:49;97383.88;;;22.82;90.52
27202;BME280;14717;46.924;15.474;2022-08-19T09:38:14;97375.91;;;22.87;87.76
27202;BME280;14717;46.924;15.474;2022-08-19T09:40:40;97368.38;;;22.95;90.14
27202;BME280;14717;46.924;15.474;2022-08-19T09:43:05;97362.84;;;23.05;86.20
27202;BME280;14717;46.924;15.474;2022-08-19T09:45:31;97349.22;;;23.07;86.32
27202;BME280;14717;46.924;15.474;2022-08-19T09:47:57;97330.91;;;22.62;91.46
27202;BME280;14717;46.924;15.474;2022-08-19T09:50:23;97333.03;;;22.71;91.47
27202;BME280;14717;46.924;15.474;2022-08-19T09:52:49;97378.91;;;22.72;88.81
27202;BME280;14717;46.924;15.474;2022-08-19T09:55:17;97386.88;;;22.92;90.45
27202;BME280;14717;46.924;15.474;2022-08-19T09:57:44;97390.25;;;23.05;90.29
27202;BME280;14717;46.924;15.474;2022-08-19T10:00:09;97389.50;;;23.11;91.11
27202;BME280;14717;46.924;15.474;2022-08-19T10:02:35;97385.94;;;23.14;89.30
27202;BME280;14717;46.924;15.474;2022-08-19T10:05:01;97392.78;;;23.16;90.92
27202;BME280;14717;46.924;15.474;2022-08-19T10:07:45;97387.53;;;23.15;89.98
27202;BME280;14717;46.924;15.474;2022-08-19T10:10:11;97400.78;;;23.11;88.96
27202;BME280;14717;46.924;15.474;2022-08-19T10:12:36;97407.53;;;23.03;89.20
27202;BME280;14717;46.924;15.474;2022-08-19T10:15:03;97388.16;;;22.98;90.88
27202;BME280;14717;46.924;15.474;2022-08-19T10:17:29;97378.50;;;22.99;89.98
27202;BME280;14717;46.924;15.474;2022-08-19T10:19:54;97367.34;;;22.80;91.73
27202;BME280;14717;46.924;15.474;2022-08-19T10:22:20;97375.09;;;22.87;86.71
27202;BME280;14717;46.924;15.474;2022-08-19T10:24:46;97368.19;;;22.81;90.34
27202;BME280;14717;46.924;15.474;2022-08-19T10:27:12;97341.78;;;22.63;92.86
27202;BME280;14717;46.924;15.474;2022-08-19T10:29:38;97357.25;;;22.76;90.56
27202;BME280;14717;46.924;15.474;2022-08-19T10:32:06;97381.81;;;23.08;92.06
27202;BME280;14717;46.924;15.474;2022-08-19T10:34:34;97393.47;;;23.07;90.22
27202;BME280;14717;46.924;15.474;2022-08-19T10:37:01;97407.81;;;23.24;88.55
27202;BME280;14717;46.924;15.474;2022-08-19T10:39:32;97416.94;;;23.47;88.26
27202;BME280;14717;46.924;15.474;2022-08-19T10:41:59;97414.56;;;23.52;87.43
27202;BME280;14717;46.924;15.474;2022-08-19T10:44:25;97412.47;;;23.46;85.43
27202;BME280;14717;46.924;15.474;2022-08-19T10:46:50;97411.53;;;23.35;88.07
27202;BME280;14717;46.924;15.474;2022-08-19T10:49:17;97411.28;;;23.47;84.93
27202;BME280;14717;46.924;15.474;2022-08-19T10:51:44;97413.09;;;23.61;84.15
27202;BME280;14717;46.924;15.474;2022-08-19T10:54:28;97394.84;;;23.55;84.75
27202;BME280;14717;46.924;15.474;2022-08-19T10:57:15;97381.88;;;23.48;84.36
27202;BME280;14717;46.924;15.474;2022-08-19T10:59:40;97375.34;;;23.76;84.98
27202;BME280;14717;46.924;15.474;2022-08-19T11:02:08;97366.44;;;23.74;86.27
27202;BME280;14717;46.924;15.474;2022-08-19T11:04:39;97339.69;;;23.58;87.16
27202;BME280;14717;46.924;15.474;2022-08-19T11:07:05;97331.16;;;23.54;86.76
27202;BME280;14717;46.924;15.474;2022-08-19T11:09:37;97359.13;;;23.66;87.94
27202;BME280;14717;46.924;15.474;2022-08-19T11:12:04;97402.31;;;23.74;83.67
27202;BME280;14717;46.924;15.474;2022-08-19T11:14:30;97411.75;;;23.88;83.32
27202;BME280;14717;46.924;15.474;2022-08-19T11:16:58;97411.69;;;23.81;80.75
27202;BME280;14717;46.924;15.474;2022-08-19T11:19:23;97393.03;;;23.70;81.86
27202;BME280;14717;46.924;15.474;2022-08-19T11:21:50;97355.44;;;23.62;87.25
27202;BME280;14717;46.924;15.474;2022-08-19T11:24:24;97373.00;;;23.85;83.93
27202;BME280;14717;46.924;15.474;2022-08-19T11:26:51;97382.00;;;24.01;79.56
27202;BME280;14717;46.924;15.474;2022-08-19T11:29:20;97395.78;;;24.09;82.36
27202;BME280;14717;46.924;15.474;2022-08-19T11:31:47;97405.34;;;24.41;78.79
27202;BME280;14717;46.924;15.474;2022-08-19T11:34:17;97415.47;;;24.45;80.53
27202;BME280;14717;46.924;15.474;2022-08-19T11:36:44;97392.53;;;24.54;76.26
27202;BME280;14717;46.924;15.474;2022-08-19T11:39:13;97397.44;;;24.67;76.90
27202;BME280;14717;46.924;15.474;2022-08-19T11:41:39;97393.50;;;24.82;79.85
27202;BME280;14717;46.924;15.474;2022-08-19T11:44:05;97397.13;;;24.86;77.34
27202;BME280;14717;46.924;15.474;2022-08-19T11:46:34;97396.19;;;24.65;78.76
27202;BME280;14717;46.924;15.474;2022-08-19T11:49:00;97386.47;;;24.55;75.63
27202;BME280;14717;46.924;15.474;2022-08-19T11:51:27;97385.94;;;25.00;70.04
27202;BME280;14717;46.924;15.474;2022-08-19T11:53:54;97381.22;;;25.35;68.25
27202;BME280;14717;46.924;15.474;2022-08-19T11:56:21;97367.50;;;25.47;71.99
27202;BME280;14717;46.924;15.474;2022-08-19T11:58:47;97358.97;;;25.26;73.92
27202;BME280;14717;46.924;15.474;2022-08-19T12:01:15;97347.22;;;25.18;74.50
27202;BME280;14717;46.924;15.474;2022-08-19T12:03:42;97348.00;;;25.11;74.14
27202;BME280;14717;46.924;15.474;2022-08-19T12:06:11;97338.38;;;25.43;69.65
27202;BME280;14717;46.924;15.474;2022-08-19T12:08:39;97329.47;;;25.24;69.95
27202;BME280;14717;46.924;15.474;2022-08-19T12:11:04;97342.38;;;25.25;71.94
27202;BME280;14717;46.924;15.474;2022-08-19T12:13:33;97343.72;;;25.66;66.67
27202;BME280;14717;46.924;15.474;2022-08-19T12:15:59;97331.59;;;25.69;68.27
27202;BME280;14717;46.924;15.474;2022-08-19T12:18:25;97325.91;;;25.86;69.50
27202;BME280;14717;46.924;15.474;2022-08-19T12:20:51;97328.75;;;26.27;68.39
27202;BME280;14717;46.924;15.474;2022-08-19T12:23:17;97313.72;;;26.58;63.55
27202;BME280;14717;46.924;15.474;2022-08-19T12:25:45;97312.81;;;26.78;65.17
27202;BME280;14717;46.924;15.474;2022-08-19T12:28:21;97310.72;;;27.06;62.97
27202;BME280;14717;46.924;15.474;2022-08-19T12:30:48;97309.97;;;26.96;61.05
27202;BME280;14717;46.924;15.474;2022-08-19T12:33:15;97299.50;;;26.68;64.54
27202;BME280;14717;46.924;15.474;2022-08-19T12:35:42;97306.34;;;26.92;62.17
27202;BME280;14717;46.924;15.474;2022-08-19T12:38:09;97304.19;;;27.09;64.97
27202;BME280;14717;46.924;15.474;2022-08-19T12:40:35;97306.16;;;27.26;58.87
27202;BME280;14717;46.924;15.474;2022-08-19T12:43:00;97304.47;;;27.32;62.82
27202;BME280;14717;46.924;15.474;2022-08-19T12:45:26;97298.97;;;27.69;57.96
27202;BME280;14717;46.924;15.474;2022-08-19T12:47:51;97304.06;;;27.94;54.77
27202;BME280;14717;46.924;15.474;2022-08-19T12:50:18;97315.13;;;27.82;58.18
27202;BME280;14717;46.924;15.474;2022-08-19T12:52:43;97318.75;;;27.86;53.62
27202;BME280;14717;46.924;15.474;2022-08-19T12:55:09;97323.00;;;28.11;51.61
27202;BME280;14717;46.924;15.474;2022-08-19T12:57:36;97326.31;;;28.06;50.67
27202;BME280;14717;46.924;15.474;2022-08-19T13:00:13;97324.00;;;27.87;50.69
27202;BME280;14717;46.924;15.474;2022-08-19T13:02:41;97317.13;;;27.88;50.47
27202;BME280;14717;46.924;15.474;2022-08-19T13:05:11;97319.72;;;28.16;50.78